Carbondale, IL

11:08 PM CDT on October 31, 2014 (GMT -0500)
Williamson County Regional | Change Station
CLOSE
Current Station
Airport
Location: Marion Regional,
Elevation: 472 ft
Nearby Weather Stations
Active Advisory: Freeze Warning

Elev 472 ft 37.75 °N, 89.01 °W | Updated 13 minutes ago

Clear
Clear
39 °F
Feels Like 32 °F
N
12
Wind Variable Wind from NNW
Gusts 18 mph

Today
High -- | Low -- °F
--% Chance of Precip.
Yesterday
High -- | Low -- °F
Precip. -- in
7:21 AM 5:59 PM
Waxing Gibbous, 62% visible
Pressure 30.32 in
Visibility 10.0 miles
Clouds Clear
Windchill 32 °F
Dew Point 23 °F
Humidity 52%
Rainfall 0.02 in
Snow Depth Not available.
UV 0 out of 12
Pollen 1.20 out of 12
Air Quality Not available.
Flu Activity Not available.
METAR KMWA 010355Z AUTO 34010G16KT 10SM CLR 04/M05 A3032 RMK AO2

More Conditions Fewer Conditions

Pressure 30.32 in
Visibility 10.0 miles
Clouds Clear
Windchill 32 °F
Dew Point 23 °F
Humidity 52%
Rainfall 0.02 in
Snow Depth Not available.
UV 0 out of 12
Pollen 1.20 out of 12
Air Quality Not available.
Flu Activity Not available.
METAR KMWA 010355Z AUTO 34010G16KT 10SM CLR 04/M05 A3032 RMK AO2

More Conditions Fewer Conditions

10-Day Weather Forecast

Almanac

Astronomy

Oct. 31, 2014 Rise Set
Actual Time
Civil Twilight
Nautical Twilight
Astronomical Twilight
Moon
Length of Visible Light
Length of Day
Tomorrow will be .
, % of the Moon is Illuminated

Today's Extremes

State Highs State Lows

Community

WunderPhotos

Upload Photos

1,766,848 photos uploaded!

WunderBlogs® & News

Nearby

Air Quality

  Air Quality AQ Index Pollutant
Not available.

Snow Depth

Station Depth Elevation

Earthquake Activity

City Distance Mag. Time & Date
Minimum magnitude displayed is 2.5.

Coastal Water Temperatures

Place Temperature

Nearby Weather Stations